sensor_id;sensor_type;location;lat;lon;timestamp;pressure;altitude;pressure_sealevel;temperature;humidity
6144;BME280;3103;49.492;8.474;2023-07-24T00:01:24;99746.63;;;24.47;43.92
6144;BME280;3103;49.492;8.474;2023-07-24T00:03:50;99747.78;;;24.46;44.08
6144;BME280;3103;49.492;8.474;2023-07-24T00:06:17;99745.34;;;24.57;43.99
6144;BME280;3103;49.492;8.474;2023-07-24T00:08:44;99746.59;;;24.60;43.92
6144;BME280;3103;49.492;8.474;2023-07-24T00:11:11;99746.94;;;24.58;43.96
6144;BME280;3103;49.492;8.474;2023-07-24T00:13:38;99743.44;;;24.45;44.18
6144;BME280;3103;49.492;8.474;2023-07-24T00:16:08;99738.34;;;24.32;44.61
6144;BME280;3103;49.492;8.474;2023-07-24T00:18:35;99740.94;;;24.28;45.14
6144;BME280;3103;49.492;8.474;2023-07-24T00:21:02;99742.13;;;24.15;45.63
6144;BME280;3103;49.492;8.474;2023-07-24T00:23:29;99736.75;;;24.18;45.66
6144;BME280;3103;49.492;8.474;2023-07-24T00:25:56;99737.44;;;24.15;45.93
6144;BME280;3103;49.492;8.474;2023-07-24T00:28:22;99727.16;;;24.12;46.04
6144;BME280;3103;49.492;8.474;2023-07-24T00:30:50;99728.38;;;24.27;45.78
6144;BME280;3103;49.492;8.474;2023-07-24T00:33:17;99727.94;;;24.25;46.03
6144;BME280;3103;49.492;8.474;2023-07-24T00:35:44;99732.63;;;24.24;45.81
6144;BME280;3103;49.492;8.474;2023-07-24T00:38:11;99728.28;;;24.23;45.70
6144;BME280;3103;49.492;8.474;2023-07-24T00:40:38;99737.06;;;24.29;45.99
6144;BME280;3103;49.492;8.474;2023-07-24T00:43:05;99716.53;;;24.11;46.52
6144;BME280;3103;49.492;8.474;2023-07-24T00:45:34;99712.88;;;24.07;46.89
6144;BME280;3103;49.492;8.474;2023-07-24T00:48:01;99716.72;;;24.18;46.60
6144;BME280;3103;49.492;8.474;2023-07-24T00:50:28;99707.72;;;24.05;47.00
6144;BME280;3103;49.492;8.474;2023-07-24T00:52:56;99710.94;;;24.07;47.05
6144;BME280;3103;49.492;8.474;2023-07-24T00:55:23;99702.06;;;23.86;47.55
6144;BME280;3103;49.492;8.474;2023-07-24T00:57:49;99706.38;;;23.99;47.40
6144;BME280;3103;49.492;8.474;2023-07-24T01:00:16;99705.22;;;24.00;47.69
6144;BME280;3103;49.492;8.474;2023-07-24T01:02:44;99702.41;;;23.84;48.12
6144;BME280;3103;49.492;8.474;2023-07-24T01:05:13;99696.03;;;23.80;47.72
6144;BME280;3103;49.492;8.474;2023-07-24T01:07:41;99699.34;;;23.74;47.93
6144;BME280;3103;49.492;8.474;2023-07-24T01:10:09;99691.41;;;23.96;47.17
6144;BME280;3103;49.492;8.474;2023-07-24T01:12:52;99694.88;;;23.93;47.64
6144;BME280;3103;49.492;8.474;2023-07-24T01:15:30;99697.22;;;24.07;47.15
6144;BME280;3103;49.492;8.474;2023-07-24T01:18:09;99694.44;;;23.67;47.49
6144;BME280;3103;49.492;8.474;2023-07-24T01:20:42;99683.00;;;23.40;48.14
6144;BME280;3103;49.492;8.474;2023-07-24T01:28:21;99676.16;;;23.59;47.54
6144;BME280;3103;49.492;8.474;2023-07-24T01:30:48;99673.66;;;23.66;46.82
6144;BME280;3103;49.492;8.474;2023-07-24T01:33:15;99682.56;;;23.38;47.46
6144;BME280;3103;49.492;8.474;2023-07-24T01:35:54;99677.06;;;23.14;47.94
6144;BME280;3103;49.492;8.474;2023-07-24T01:38:25;99678.28;;;23.04;48.32
6144;BME280;3103;49.492;8.474;2023-07-24T01:40:53;99681.41;;;23.27;47.95
6144;BME280;3103;49.492;8.474;2023-07-24T01:43:21;99679.91;;;23.18;47.80
6144;BME280;3103;49.492;8.474;2023-07-24T01:45:48;99685.94;;;22.99;48.31
6144;BME280;3103;49.492;8.474;2023-07-24T01:48:15;99674.16;;;22.86;48.88
6144;BME280;3103;49.492;8.474;2023-07-24T01:50:42;99661.97;;;23.20;48.49
6144;BME280;3103;49.492;8.474;2023-07-24T01:53:10;99644.50;;;23.49;47.78
6144;BME280;3103;49.492;8.474;2023-07-24T01:55:37;99646.81;;;23.59;47.79
6144;BME280;3103;49.492;8.474;2023-07-24T01:58:04;99662.13;;;23.24;48.59
6144;BME280;3103;49.492;8.474;2023-07-24T02:00:30;99649.56;;;23.10;48.71
6144;BME280;3103;49.492;8.474;2023-07-24T02:02:57;99636.66;;;23.11;48.53
6144;BME280;3103;49.492;8.474;2023-07-24T02:05:25;99634.09;;;22.94;49.22
6144;BME280;3103;49.492;8.474;2023-07-24T02:07:52;99627.28;;;23.00;49.23
6144;BME280;3103;49.492;8.474;2023-07-24T02:10:19;99626.03;;;22.97;49.38
6144;BME280;3103;49.492;8.474;2023-07-24T02:12:47;99635.22;;;22.80;49.98
6144;BME280;3103;49.492;8.474;2023-07-24T02:15:14;99635.03;;;22.98;49.45
6144;BME280;3103;49.492;8.474;2023-07-24T02:17:41;99632.19;;;23.06;49.47
6144;BME280;3103;49.492;8.474;2023-07-24T02:20:10;99635.03;;;23.22;49.27
6144;BME280;3103;49.492;8.474;2023-07-24T02:22:48;99632.66;;;22.96;50.23
6144;BME280;3103;49.492;8.474;2023-07-24T02:25:15;99631.78;;;22.71;50.83
6144;BME280;3103;49.492;8.474;2023-07-24T02:27:42;99632.13;;;22.70;51.04
6144;BME280;3103;49.492;8.474;2023-07-24T02:30:09;99635.72;;;22.95;50.58
6144;BME280;3103;49.492;8.474;2023-07-24T02:32:36;99631.72;;;23.04;50.56
6144;BME280;3103;49.492;8.474;2023-07-24T02:35:03;99630.69;;;22.85;51.19
6144;BME280;3103;49.492;8.474;2023-07-24T02:37:32;99621.63;;;22.72;51.97
6144;BME280;3103;49.492;8.474;2023-07-24T02:39:58;99632.06;;;22.91;51.92
6144;BME280;3103;49.492;8.474;2023-07-24T02:42:32;99634.09;;;22.94;52.06
6144;BME280;3103;49.492;8.474;2023-07-24T02:44:59;99628.28;;;22.83;52.82
6144;BME280;3103;49.492;8.474;2023-07-24T02:47:32;99624.41;;;22.84;52.68
6144;BME280;3103;49.492;8.474;2023-07-24T02:49:58;99623.13;;;22.81;52.40
6144;BME280;3103;49.492;8.474;2023-07-24T02:52:25;99613.25;;;23.01;52.04
6144;BME280;3103;49.492;8.474;2023-07-24T02:54:52;99613.31;;;22.80;53.26
6144;BME280;3103;49.492;8.474;2023-07-24T02:57:19;99607.25;;;22.75;53.72
6144;BME280;3103;49.492;8.474;2023-07-24T02:59:45;99615.69;;;22.70;53.86
6144;BME280;3103;49.492;8.474;2023-07-24T03:02:13;99615.06;;;22.97;52.88
6144;BME280;3103;49.492;8.474;2023-07-24T03:04:40;99614.25;;;22.85;53.69
6144;BME280;3103;49.492;8.474;2023-07-24T03:07:07;99606.84;;;22.85;53.83
6144;BME280;3103;49.492;8.474;2023-07-24T03:09:35;99601.72;;;22.84;54.00
6144;BME280;3103;49.492;8.474;2023-07-24T03:12:01;99592.31;;;22.72;54.18
6144;BME280;3103;49.492;8.474;2023-07-24T03:14:28;99591.50;;;22.72;54.45
6144;BME280;3103;49.492;8.474;2023-07-24T03:16:55;99590.72;;;22.71;54.25
6144;BME280;3103;49.492;8.474;2023-07-24T03:19:22;99582.72;;;22.66;54.89
6144;BME280;3103;49.492;8.474;2023-07-24T03:21:49;99581.91;;;22.78;54.80
6144;BME280;3103;49.492;8.474;2023-07-24T03:24:16;99585.66;;;22.61;55.16
6144;BME280;3103;49.492;8.474;2023-07-24T03:26:43;99583.28;;;22.60;55.56
6144;BME280;3103;49.492;8.474;2023-07-24T03:29:10;99577.38;;;22.82;55.15
6144;BME280;3103;49.492;8.474;2023-07-24T03:31:37;99581.25;;;22.81;54.84
6144;BME280;3103;49.492;8.474;2023-07-24T03:34:04;99579.56;;;22.89;54.74
6144;BME280;3103;49.492;8.474;2023-07-24T03:36:31;99576.25;;;22.83;55.12
6144;BME280;3103;49.492;8.474;2023-07-24T03:38:58;99574.78;;;22.98;54.41
6144;BME280;3103;49.492;8.474;2023-07-24T03:41:25;99574.31;;;23.08;54.19
6144;BME280;3103;49.492;8.474;2023-07-24T03:43:54;99568.03;;;23.07;54.06
6144;BME280;3103;49.492;8.474;2023-07-24T03:46:20;99566.44;;;23.06;54.18
6144;BME280;3103;49.492;8.474;2023-07-24T03:48:47;99575.00;;;23.05;54.53
6144;BME280;3103;49.492;8.474;2023-07-24T03:51:16;99562.00;;;22.90;54.85
6144;BME280;3103;49.492;8.474;2023-07-24T03:53:43;99561.66;;;23.03;54.31
6144;BME280;3103;49.492;8.474;2023-07-24T03:56:10;99548.75;;;22.92;54.54
6144;BME280;3103;49.492;8.474;2023-07-24T03:58:37;99547.84;;;23.00;54.34
6144;BME280;3103;49.492;8.474;2023-07-24T04:01:07;99550.94;;;23.10;53.98
6144;BME280;3103;49.492;8.474;2023-07-24T04:03:35;99546.34;;;23.15;53.69
6144;BME280;3103;49.492;8.474;2023-07-24T04:06:02;99541.44;;;23.08;53.85
6144;BME280;3103;49.492;8.474;2023-07-24T04:08:29;99536.53;;;23.01;54.34
6144;BME280;3103;49.492;8.474;2023-07-24T04:10:56;99539.75;;;22.91;54.39
6144;BME280;3103;49.492;8.474;2023-07-24T04:13:23;99540.97;;;22.81;54.83
6144;BME280;3103;49.492;8.474;2023-07-24T04:15:50;99545.88;;;22.76;54.91
6144;BME280;3103;49.492;8.474;2023-07-24T04:18:17;99552.06;;;22.97;53.99
6144;BME280;3103;49.492;8.474;2023-07-24T04:20:43;99558.09;;;23.03;54.30
6144;BME280;3103;49.492;8.474;2023-07-24T04:23:10;99563.34;;;23.08;53.99
6144;BME280;3103;49.492;8.474;2023-07-24T04:25:37;99545.91;;;22.88;54.52
6144;BME280;3103;49.492;8.474;2023-07-24T04:28:04;99542.59;;;22.95;54.51
6144;BME280;3103;49.492;8.474;2023-07-24T04:30:31;99543.06;;;23.09;53.79
6144;BME280;3103;49.492;8.474;2023-07-24T04:32:59;99544.53;;;22.94;54.15
6144;BME280;3103;49.492;8.474;2023-07-24T04:35:26;99548.28;;;23.02;53.99
6144;BME280;3103;49.492;8.474;2023-07-24T04:37:53;99552.63;;;23.03;53.72
6144;BME280;3103;49.492;8.474;2023-07-24T04:40:20;99551.13;;;23.05;53.74
6144;BME280;3103;49.492;8.474;2023-07-24T04:42:47;99550.78;;;23.19;53.29
6144;BME280;3103;49.492;8.474;2023-07-24T04:45:13;99546.25;;;22.99;53.67
6144;BME280;3103;49.492;8.474;2023-07-24T04:47:40;99535.66;;;22.85;54.12
6144;BME280;3103;49.492;8.474;2023-07-24T04:50:07;99537.59;;;22.85;54.17
6144;BME280;3103;49.492;8.474;2023-07-24T04:52:35;99549.00;;;22.99;53.96
6144;BME280;3103;49.492;8.474;2023-07-24T04:55:02;99558.19;;;23.19;53.21
6144;BME280;3103;49.492;8.474;2023-07-24T04:57:29;99552.03;;;23.22;53.08
6144;BME280;3103;49.492;8.474;2023-07-24T04:59:56;99554.13;;;23.13;53.37
6144;BME280;3103;49.492;8.474;2023-07-24T05:02:23;99549.78;;;23.12;53.69
6144;BME280;3103;49.492;8.474;2023-07-24T05:04:50;99550.56;;;23.12;53.88
6144;BME280;3103;49.492;8.474;2023-07-24T05:07:17;99539.28;;;23.14;53.80
6144;BME280;3103;49.492;8.474;2023-07-24T05:09:43;99540.19;;;23.05;54.07
6144;BME280;3103;49.492;8.474;2023-07-24T05:12:10;99534.25;;;23.03;54.25
6144;BME280;3103;49.492;8.474;2023-07-24T05:14:37;99539.28;;;23.14;53.71
6144;BME280;3103;49.492;8.474;2023-07-24T05:17:04;99529.66;;;23.07;54.16
6144;BME280;3103;49.492;8.474;2023-07-24T05:19:31;99529.09;;;23.14;54.23
6144;BME280;3103;49.492;8.474;2023-07-24T05:21:57;99519.66;;;22.99;54.39
6144;BME280;3103;49.492;8.474;2023-07-24T05:24:25;99531.28;;;23.08;54.23
6144;BME280;3103;49.492;8.474;2023-07-24T05:26:52;99538.38;;;23.09;54.24
6144;BME280;3103;49.492;8.474;2023-07-24T05:29:19;99539.53;;;23.08;54.03
6144;BME280;3103;49.492;8.474;2023-07-24T05:31:46;99543.84;;;22.85;54.75
6144;BME280;3103;49.492;8.474;2023-07-24T05:34:13;99552.94;;;22.77;55.00
6144;BME280;3103;49.492;8.474;2023-07-24T05:36:43;99550.34;;;22.93;54.66
6144;BME280;3103;49.492;8.474;2023-07-24T05:39:09;99553.31;;;23.00;54.16
6144;BME280;3103;49.492;8.474;2023-07-24T05:41:36;99552.53;;;22.99;54.51
6144;BME280;3103;49.492;8.474;2023-07-24T05:44:06;99540.44;;;23.00;54.52
6144;BME280;3103;49.492;8.474;2023-07-24T05:46:33;99552.63;;;23.15;53.91
6144;BME280;3103;49.492;8.474;2023-07-24T05:49:00;99555.47;;;23.19;54.07
6144;BME280;3103;49.492;8.474;2023-07-24T05:51:28;99545.81;;;22.85;55.31
6144;BME280;3103;49.492;8.474;2023-07-24T05:53:55;99556.16;;;23.03;55.40
6144;BME280;3103;49.492;8.474;2023-07-24T05:56:21;99565.03;;;22.76;56.08
6144;BME280;3103;49.492;8.474;2023-07-24T05:58:49;99567.81;;;22.88;55.59
6144;BME280;3103;49.492;8.474;2023-07-24T06:01:16;99569.88;;;23.03;55.17
6144;BME280;3103;49.492;8.474;2023-07-24T06:03:43;99568.16;;;22.99;55.94
6144;BME280;3103;49.492;8.474;2023-07-24T06:06:10;99565.88;;;22.89;56.38
6144;BME280;3103;49.492;8.474;2023-07-24T06:08:37;99576.28;;;22.95;56.02
6144;BME280;3103;49.492;8.474;2023-07-24T06:11:03;99567.13;;;23.03;55.80
6144;BME280;3103;49.492;8.474;2023-07-24T06:13:30;99565.41;;;23.11;55.41
6144;BME280;3103;49.492;8.474;2023-07-24T06:15:57;99562.44;;;23.04;55.90
6144;BME280;3103;49.492;8.474;2023-07-24T06:18:24;99567.25;;;22.95;56.17
6144;BME280;3103;49.492;8.474;2023-07-24T06:20:54;99571.25;;;22.85;56.50
6144;BME280;3103;49.492;8.474;2023-07-24T06:23:21;99566.63;;;22.52;57.78
6144;BME280;3103;49.492;8.474;2023-07-24T06:25:47;99576.66;;;22.61;57.73
6144;BME280;3103;49.492;8.474;2023-07-24T06:28:14;99581.47;;;22.76;57.31
6144;BME280;3103;49.492;8.474;2023-07-24T06:30:41;99568.69;;;22.80;57.18
6144;BME280;3103;49.492;8.474;2023-07-24T06:33:08;99561.44;;;22.84;57.09
6144;BME280;3103;49.492;8.474;2023-07-24T06:35:35;99568.06;;;22.95;56.72
6144;BME280;3103;49.492;8.474;2023-07-24T06:38:02;99575.22;;;22.88;57.24
6144;BME280;3103;49.492;8.474;2023-07-24T06:40:29;99570.09;;;22.98;56.91
6144;BME280;3103;49.492;8.474;2023-07-24T06:42:55;99571.34;;;23.13;56.79
6144;BME280;3103;49.492;8.474;2023-07-24T06:45:22;99577.53;;;23.10;56.90
6144;BME280;3103;49.492;8.474;2023-07-24T06:47:49;99572.03;;;23.10;57.04
6144;BME280;3103;49.492;8.474;2023-07-24T06:50:16;99569.41;;;23.26;56.39
6144;BME280;3103;49.492;8.474;2023-07-24T06:52:42;99564.72;;;23.26;56.93
6144;BME280;3103;49.492;8.474;2023-07-24T06:55:09;99574.09;;;23.13;57.34
6144;BME280;3103;49.492;8.474;2023-07-24T06:57:36;99566.22;;;23.24;56.85
6144;BME280;3103;49.492;8.474;2023-07-24T07:00:03;99561.81;;;23.35;56.91
6144;BME280;3103;49.492;8.474;2023-07-24T07:02:34;99561.53;;;23.24;57.20
6144;BME280;3103;49.492;8.474;2023-07-24T07:05:01;99558.97;;;23.44;56.79
6144;BME280;3103;49.492;8.474;2023-07-24T07:07:30;99548.09;;;23.47;56.67
6144;BME280;3103;49.492;8.474;2023-07-24T07:09:57;99542.16;;;23.57;56.56
6144;BME280;3103;49.492;8.474;2023-07-24T07:12:24;99536.06;;;23.64;56.27
6144;BME280;3103;49.492;8.474;2023-07-24T07:14:51;99543.50;;;23.63;56.58
6144;BME280;3103;49.492;8.474;2023-07-24T07:17:18;99544.84;;;23.82;55.89
6144;BME280;3103;49.492;8.474;2023-07-24T07:19:45;99552.44;;;23.88;55.94
6144;BME280;3103;49.492;8.474;2023-07-24T07:22:12;99551.34;;;23.77;56.03
6144;BME280;3103;49.492;8.474;2023-07-24T07:24:39;99546.19;;;24.04;55.53
6144;BME280;3103;49.492;8.474;2023-07-24T07:27:06;99544.19;;;24.16;55.22
6144;BME280;3103;49.492;8.474;2023-07-24T07:29:33;99547.66;;;24.13;55.25
6144;BME280;3103;49.492;8.474;2023-07-24T07:31:59;99555.63;;;24.18;55.42
6144;BME280;3103;49.492;8.474;2023-07-24T07:34:27;99557.84;;;24.28;55.05
6144;BME280;3103;49.492;8.474;2023-07-24T07:36:54;99567.59;;;24.26;55.42
6144;BME280;3103;49.492;8.474;2023-07-24T07:39:20;99573.50;;;24.12;55.77
6144;BME280;3103;49.492;8.474;2023-07-24T07:41:47;99570.72;;;23.96;56.73
6144;BME280;3103;49.492;8.474;2023-07-24T07:44:14;99573.78;;;23.55;58.48
6144;BME280;3103;49.492;8.474;2023-07-24T07:46:41;99569.31;;;23.50;58.92
6144;BME280;3103;49.492;8.474;2023-07-24T07:49:08;99562.81;;;23.67;58.49
6144;BME280;3103;49.492;8.474;2023-07-24T07:51:34;99559.69;;;23.81;57.74
6144;BME280;3103;49.492;8.474;2023-07-24T07:54:01;99558.94;;;23.96;57.51
6144;BME280;3103;49.492;8.474;2023-07-24T07:56:28;99566.03;;;23.97;57.52
6144;BME280;3103;49.492;8.474;2023-07-24T07:58:56;99572.19;;;23.66;58.62
6144;BME280;3103;49.492;8.474;2023-07-24T08:01:22;99569.59;;;23.57;59.01
6144;BME280;3103;49.492;8.474;2023-07-24T08:03:49;99560.75;;;23.64;58.91
6144;BME280;3103;49.492;8.474;2023-07-24T08:06:16;99558.13;;;23.67;58.71
6144;BME280;3103;49.492;8.474;2023-07-24T08:08:43;99557.41;;;23.83;58.49
6144;BME280;3103;49.492;8.474;2023-07-24T08:11:10;99570.16;;;23.91;58.32
6144;BME280;3103;49.492;8.474;2023-07-24T08:13:36;99555.53;;;23.87;58.52
6144;BME280;3103;49.492;8.474;2023-07-24T08:16:03;99551.47;;;23.81;59.20
6144;BME280;3103;49.492;8.474;2023-07-24T08:18:30;99552.13;;;23.78;58.99
6144;BME280;3103;49.492;8.474;2023-07-24T08:20:57;99546.88;;;23.85;58.71
6144;BME280;3103;49.492;8.474;2023-07-24T08:23:24;99541.69;;;23.95;58.45
6144;BME280;3103;49.492;8.474;2023-07-24T08:25:53;99537.22;;;23.91;58.59
6144;BME280;3103;49.492;8.474;2023-07-24T08:28:20;99539.81;;;23.99;58.25
6144;BME280;3103;49.492;8.474;2023-07-24T08:30:56;99525.25;;;24.11;57.91
6144;BME280;3103;49.492;8.474;2023-07-24T08:33:24;99525.28;;;24.27;57.53
6144;BME280;3103;49.492;8.474;2023-07-24T08:36:07;99515.03;;;24.40;56.94
6144;BME280;3103;49.492;8.474;2023-07-24T08:38:35;99516.28;;;24.42;56.91
6144;BME280;3103;49.492;8.474;2023-07-24T08:43:29;99534.34;;;24.59;56.41
6144;BME280;3103;49.492;8.474;2023-07-24T08:45:58;99531.16;;;24.57;56.51
6144;BME280;3103;49.492;8.474;2023-07-24T08:48:34;99532.84;;;24.46;56.84
6144;BME280;3103;49.492;8.474;2023-07-24T08:51:06;99538.75;;;24.48;56.77
6144;BME280;3103;49.492;8.474;2023-07-24T08:53:35;99534.22;;;24.24;57.59
6144;BME280;3103;49.492;8.474;2023-07-24T08:56:04;99543.47;;;24.19;57.91
6144;BME280;3103;49.492;8.474;2023-07-24T08:58:32;99526.53;;;24.30;57.57
6144;BME280;3103;49.492;8.474;2023-07-24T09:01:00;99536.44;;;24.34;57.24
6144;BME280;3103;49.492;8.474;2023-07-24T09:03:28;99530.97;;;24.34;57.21
6144;BME280;3103;49.492;8.474;2023-07-24T09:05:55;99538.06;;;24.35;57.26
6144;BME280;3103;49.492;8.474;2023-07-24T09:08:29;99523.00;;;24.45;56.77
6144;BME280;3103;49.492;8.474;2023-07-24T09:10:59;99511.75;;;24.66;56.35
6144;BME280;3103;49.492;8.474;2023-07-24T09:13:27;99505.00;;;24.63;56.68
6144;BME280;3103;49.492;8.474;2023-07-24T09:15:54;99486.75;;;24.71;56.38
6144;BME280;3103;49.492;8.474;2023-07-24T09:18:22;99472.66;;;24.72;56.15
6144;BME280;3103;49.492;8.474;2023-07-24T09:20:49;99462.78;;;24.68;56.82
6144;BME280;3103;49.492;8.474;2023-07-24T09:23:28;99463.13;;;24.66;56.88
6144;BME280;3103;49.492;8.474;2023-07-24T09:25:55;99458.09;;;24.52;57.17
6144;BME280;3103;49.492;8.474;2023-07-24T09:28:22;99461.78;;;24.60;56.69
6144;BME280;3103;49.492;8.474;2023-07-24T09:30:57;99449.91;;;24.72;56.70
6144;BME280;3103;49.492;8.474;2023-07-24T09:33:38;99461.19;;;24.67;56.74
6144;BME280;3103;49.492;8.474;2023-07-24T09:36:07;99476.59;;;24.55;56.82
6144;BME280;3103;49.492;8.474;2023-07-24T09:38:36;99486.34;;;24.53;57.07
6144;BME280;3103;49.492;8.474;2023-07-24T09:41:03;99493.53;;;24.42;57.95
6144;BME280;3103;49.492;8.474;2023-07-24T09:43:31;99495.03;;;24.39;57.72
6144;BME280;3103;49.492;8.474;2023-07-24T09:46:04;99486.25;;;24.34;57.95
6144;BME280;3103;49.492;8.474;2023-07-24T09:48:32;99482.16;;;24.27;58.50
6144;BME280;3103;49.492;8.474;2023-07-24T09:51:02;99475.50;;;24.28;58.72
6144;BME280;3103;49.492;8.474;2023-07-24T09:53:34;99493.25;;;24.31;59.06
6144;BME280;3103;49.492;8.474;2023-07-24T09:56:06;99483.38;;;24.14;59.92
6144;BME280;3103;49.492;8.474;2023-07-24T09:58:38;99476.94;;;24.22;59.79
6144;BME280;3103;49.492;8.474;2023-07-24T10:01:07;99487.06;;;24.50;58.91
6144;BME280;3103;49.492;8.474;2023-07-24T10:03:38;99471.25;;;24.63;58.33
6144;BME280;3103;49.492;8.474;2023-07-24T10:06:09;99479.97;;;24.65;58.49
6144;BME280;3103;49.492;8.474;2023-07-24T10:08:42;99484.19;;;24.78;57.87
6144;BME280;3103;49.492;8.474;2023-07-24T10:11:11;99501.00;;;24.76;58.04
6144;BME280;3103;49.492;8.474;2023-07-24T10:13:39;99492.97;;;24.68;58.53
6144;BME280;3103;49.492;8.474;2023-07-24T10:16:07;99486.59;;;24.48;59.39
6144;BME280;3103;49.492;8.474;2023-07-24T10:18:42;99497.56;;;24.48;59.69
6144;BME280;3103;49.492;8.474;2023-07-24T10:21:11;99482.16;;;24.27;60.43
6144;BME280;3103;49.492;8.474;2023-07-24T10:23:43;99488.66;;;24.35;60.03
6144;BME280;3103;49.492;8.474;2023-07-24T10:26:10;99494.84;;;24.48;59.68
6144;BME280;3103;49.492;8.474;2023-07-24T10:28:39;99490.13;;;24.48;59.99
6144;BME280;3103;49.492;8.474;2023-07-24T10:33:45;99489.00;;;24.65;59.50
6144;BME280;3103;49.492;8.474;2023-07-24T10:36:19;99495.28;;;24.66;59.73
6144;BME280;3103;49.492;8.474;2023-07-24T10:38:51;99490.03;;;24.61;60.04
6144;BME280;3103;49.492;8.474;2023-07-24T10:41:19;99491.03;;;24.52;60.37
6144;BME280;3103;49.492;8.474;2023-07-24T10:43:47;99492.19;;;24.67;59.84
6144;BME280;3103;49.492;8.474;2023-07-24T10:46:17;99479.25;;;24.68;60.01
6144;BME280;3103;49.492;8.474;2023-07-24T10:48:48;99473.53;;;24.76;59.53
6144;BME280;3103;49.492;8.474;2023-07-24T10:51:16;99477.97;;;24.81;59.50
6144;BME280;3103;49.492;8.474;2023-07-24T10:53:48;99483.66;;;24.72;60.01
6144;BME280;3103;49.492;8.474;2023-07-24T10:56:16;99483.91;;;24.83;59.86
6144;BME280;3103;49.492;8.474;2023-07-24T10:58:43;99485.56;;;24.87;59.92
6144;BME280;3103;49.492;8.474;2023-07-24T11:01:11;99487.28;;;24.92;59.78
6144;BME280;3103;49.492;8.474;2023-07-24T11:03:41;99481.53;;;24.81;60.00
6144;BME280;3103;49.492;8.474;2023-07-24T11:06:16;99484.59;;;24.96;59.68
6144;BME280;3103;49.492;8.474;2023-07-24T11:08:51;99487.09;;;25.01;59.26
6144;BME280;3103;49.492;8.474;2023-07-24T11:11:19;99475.59;;;24.79;59.91
6144;BME280;3103;49.492;8.474;2023-07-24T11:13:46;99471.47;;;24.89;59.50
6144;BME280;3103;49.492;8.474;2023-07-24T11:16:12;99483.97;;;25.02;58.84
6144;BME280;3103;49.492;8.474;2023-07-24T11:18:47;99482.63;;;25.12;58.44
6144;BME280;3103;49.492;8.474;2023-07-24T11:21:24;99476.41;;;25.15;58.10
6144;BME280;3103;49.492;8.474;2023-07-24T11:23:55;99483.41;;;25.12;57.84
6144;BME280;3103;49.492;8.474;2023-07-24T11:26:25;99478.13;;;24.88;57.81
6144;BME280;3103;49.492;8.474;2023-07-24T11:28:53;99471.41;;;24.85;57.32
6144;BME280;3103;49.492;8.474;2023-07-24T11:31:20;99468.28;;;25.03;56.87
6144;BME280;3103;49.492;8.474;2023-07-24T11:33:49;99455.44;;;25.07;56.61
6144;BME280;3103;49.492;8.474;2023-07-24T11:36:18;99459.06;;;25.11;56.58
6144;BME280;3103;49.492;8.474;2023-07-24T11:38:45;99452.41;;;25.12;56.30
6144;BME280;3103;49.492;8.474;2023-07-24T11:41:12;99454.91;;;25.01;56.99
6144;BME280;3103;49.492;8.474;2023-07-24T11:43:49;99456.88;;;24.85;57.84
6144;BME280;3103;49.492;8.474;2023-07-24T11:46:27;99450.44;;;24.77;58.98
6144;BME280;3103;49.492;8.474;2023-07-24T11:48:55;99441.03;;;24.78;59.25
6144;BME280;3103;49.492;8.474;2023-07-24T11:51:25;99431.34;;;24.84;60.07
6144;BME280;3103;49.492;8.474;2023-07-24T11:54:07;99436.09;;;25.03;62.17
6144;BME280;3103;49.492;8.474;2023-07-24T11:56:34;99438.59;;;25.08;62.07
6144;BME280;3103;49.492;8.474;2023-07-24T11:59:14;99448.78;;;25.27;60.97
6144;BME280;3103;49.492;8.474;2023-07-24T12:01:48;99456.53;;;25.41;60.22
6144;BME280;3103;49.492;8.474;2023-07-24T12:04:16;99449.94;;;25.26;60.27
6144;BME280;3103;49.492;8.474;2023-07-24T12:06:43;99446.69;;;25.21;60.21
6144;BME280;3103;49.492;8.474;2023-07-24T12:09:11;99445.59;;;25.06;60.24
6144;BME280;3103;49.492;8.474;2023-07-24T12:11:40;99436.13;;;24.87;61.13
6144;BME280;3103;49.492;8.474;2023-07-24T12:14:15;99402.81;;;24.89;60.83
6144;BME280;3103;49.492;8.474;2023-07-24T12:16:42;99400.28;;;25.00;60.50
6144;BME280;3103;49.492;8.474;2023-07-24T12:19:09;99413.34;;;25.03;59.75
6144;BME280;3103;49.492;8.474;2023-07-24T12:21:36;99408.00;;;25.10;59.42
6144;BME280;3103;49.492;8.474;2023-07-24T12:24:03;99412.91;;;25.01;59.80
6144;BME280;3103;49.492;8.474;2023-07-24T12:26:30;99409.00;;;25.02;60.06
6144;BME280;3103;49.492;8.474;2023-07-24T12:28:56;99415.50;;;25.13;59.73
6144;BME280;3103;49.492;8.474;2023-07-24T12:31:24;99415.38;;;25.25;59.77
6144;BME280;3103;49.492;8.474;2023-07-24T12:33:51;99415.06;;;25.30;59.60
6144;BME280;3103;49.492;8.474;2023-07-24T12:36:18;99427.28;;;25.33;59.39
6144;BME280;3103;49.492;8.474;2023-07-24T12:38:44;99430.25;;;25.43;59.14
6144;BME280;3103;49.492;8.474;2023-07-24T12:41:12;99432.28;;;25.46;59.22
6144;BME280;3103;49.492;8.474;2023-07-24T12:43:38;99421.06;;;25.16;60.21
6144;BME280;3103;49.492;8.474;2023-07-24T12:46:05;99410.00;;;25.13;60.21
6144;BME280;3103;49.492;8.474;2023-07-24T12:48:32;99411.53;;;25.30;59.80
6144;BME280;3103;49.492;8.474;2023-07-24T12:50:59;99408.56;;;25.38;59.57
6144;BME280;3103;49.492;8.474;2023-07-24T12:53:27;99414.22;;;25.26;59.70
6144;BME280;3103;49.492;8.474;2023-07-24T12:56:03;99416.03;;;25.38;59.21
6144;BME280;3103;49.492;8.474;2023-07-24T12:58:29;99405.91;;;25.23;59.36
6144;BME280;3103;49.492;8.474;2023-07-24T13:00:56;99399.69;;;24.91;60.13
6144;BME280;3103;49.492;8.474;2023-07-24T13:03:23;99401.81;;;24.97;59.80
6144;BME280;3103;49.492;8.474;2023-07-24T13:05:50;99384.69;;;25.04;59.68
6144;BME280;3103;49.492;8.474;2023-07-24T13:08:17;99386.56;;;25.19;59.30
6144;BME280;3103;49.492;8.474;2023-07-24T13:10:48;99379.50;;;25.37;58.80
6144;BME280;3103;49.492;8.474;2023-07-24T13:13:15;99371.50;;;25.52;57.64
6144;BME280;3103;49.492;8.474;2023-07-24T13:15:42;99369.38;;;25.64;57.19
6144;BME280;3103;49.492;8.474;2023-07-24T13:18:08;99353.53;;;25.77;56.73
6144;BME280;3103;49.492;8.474;2023-07-24T13:20:53;99357.31;;;25.69;56.74
6144;BME280;3103;49.492;8.474;2023-07-24T13:23:20;99352.22;;;25.71;56.03
6144;BME280;3103;49.492;8.474;2023-07-24T13:25:47;99338.63;;;25.59;56.57
6144;BME280;3103;49.492;8.474;2023-07-24T13:28:13;99335.03;;;25.55;55.42
6144;BME280;3103;49.492;8.474;2023-07-24T13:30:40;99330.69;;;25.54;56.05
6144;BME280;3103;49.492;8.474;2023-07-24T13:33:07;99315.47;;;25.60;55.70
6144;BME280;3103;49.492;8.474;2023-07-24T13:35:35;99310.34;;;25.81;54.94
6144;BME280;3103;49.492;8.474;2023-07-24T13:38:02;99310.16;;;25.70;55.07